Sylvan Beach, Texas
Current Conditions -  °F | °C
As of 10:50 AM on Friday 28 Nov 2014 (Local Time) from KEFD Reporting Station
Few Clouds Few Clouds  
Wind Chill: 20°   Ceiling: Unl
Heat Index: 20°   Visibility: 10mi
Dew Point: 13°   Wind: 10mph
Humidity: 64%   Direction: 160°SSE
Pressure: 30.34"   Gusts: NA
Location:  29.6785°N, 95.0483°W
Report Text: KEFD 281650Z 16009KT 10SM FEW100 20/13 A3034
Loading
Personal Weather Stations






























Interactive Weather Map New forecast layout! Learn more

10-Day Weather Forecast

Advertisements
Track Severe Weather on mobile